sensor_id;sensor_type;location;lat;lon;timestamp;P1;durP1;ratioP1;P2;durP2;ratioP2
41925;SDS011;27615;51.826;5.692;2022-08-04T00:00:19;3.88;;;1.50;;
41925;SDS011;27615;51.826;5.692;2022-08-04T00:05:31;2.15;;;1.25;;
41925;SDS011;27615;51.826;5.692;2022-08-04T00:08:18;2.15;;;1.20;;
41925;SDS011;27615;51.826;5.692;2022-08-04T00:10:49;3.03;;;1.48;;
41925;SDS011;27615;51.826;5.692;2022-08-04T00:13:22;4.15;;;1.25;;
41925;SDS011;27615;51.826;5.692;2022-08-04T00:15:52;2.97;;;1.40;;
41925;SDS011;27615;51.826;5.692;2022-08-04T00:18:33;4.28;;;1.67;;
41925;SDS011;27615;51.826;5.692;2022-08-04T00:20:59;1.90;;;0.95;;
41925;SDS011;27615;51.826;5.692;2022-08-04T00:23:29;3.30;;;1.23;;
41925;SDS011;27615;51.826;5.692;2022-08-04T00:25:59;2.25;;;1.00;;
41925;SDS011;27615;51.826;5.692;2022-08-04T00:28:25;1.95;;;0.90;;
41925;SDS011;27615;51.826;5.692;2022-08-04T00:30:55;2.83;;;0.90;;
41925;SDS011;27615;51.826;5.692;2022-08-04T00:33:21;3.17;;;1.50;;
41925;SDS011;27615;51.826;5.692;2022-08-04T00:35:47;1.70;;;0.77;;
41925;SDS011;27615;51.826;5.692;2022-08-04T00:38:14;3.20;;;0.90;;
41925;SDS011;27615;51.826;5.692;2022-08-04T00:40:50;2.00;;;1.10;;
41925;SDS011;27615;51.826;5.692;2022-08-04T00:44:04;1.85;;;0.90;;
41925;SDS011;27615;51.826;5.692;2022-08-04T00:47:08;2.90;;;1.30;;
41925;SDS011;27615;51.826;5.692;2022-08-04T01:00:17;2.13;;;1.13;;
41925;SDS011;27615;51.826;5.692;2022-08-04T01:11:02;4.38;;;2.22;;
41925;SDS011;27615;51.826;5.692;2022-08-04T01:16:16;2.92;;;1.70;;
41925;SDS011;27615;51.826;5.692;2022-08-04T01:27:05;3.97;;;1.73;;
41925;SDS011;27615;51.826;5.692;2022-08-04T01:32:31;3.65;;;2.10;;
41925;SDS011;27615;51.826;5.692;2022-08-04T01:35:22;4.57;;;1.63;;
41925;SDS011;27615;51.826;5.692;2022-08-04T01:40:50;2.33;;;1.63;;
41925;SDS011;27615;51.826;5.692;2022-08-04T01:43:17;5.22;;;2.22;;
41925;SDS011;27615;51.826;5.692;2022-08-04T01:45:48;6.05;;;2.10;;
41925;SDS011;27615;51.826;5.692;2022-08-04T01:48:15;5.25;;;2.38;;
41925;SDS011;27615;51.826;5.692;2022-08-04T01:50:42;3.28;;;2.15;;
41925;SDS011;27615;51.826;5.692;2022-08-04T01:53:10;5.15;;;1.48;;
41925;SDS011;27615;51.826;5.692;2022-08-04T01:55:35;3.05;;;1.98;;
41925;SDS011;27615;51.826;5.692;2022-08-04T01:58:02;3.92;;;2.30;;
41925;SDS011;27615;51.826;5.692;2022-08-04T02:00:29;5.80;;;2.20;;
41925;SDS011;27615;51.826;5.692;2022-08-04T02:02:55;5.07;;;2.20;;
41925;SDS011;27615;51.826;5.692;2022-08-04T02:05:22;5.03;;;2.20;;
41925;SDS011;27615;51.826;5.692;2022-08-04T02:08:00;3.88;;;1.55;;
41925;SDS011;27615;51.826;5.692;2022-08-04T02:10:51;5.40;;;2.10;;
41925;SDS011;27615;51.826;5.692;2022-08-04T02:14:21;2.63;;;1.50;;
41925;SDS011;27615;51.826;5.692;2022-08-04T02:16:45;4.88;;;2.15;;
41925;SDS011;27615;51.826;5.692;2022-08-04T02:21:57;4.95;;;1.70;;
41925;SDS011;27615;51.826;5.692;2022-08-04T02:24:31;6.43;;;2.40;;
41925;SDS011;27615;51.826;5.692;2022-08-04T02:26:57;4.45;;;2.05;;
41925;SDS011;27615;51.826;5.692;2022-08-04T02:29:30;5.60;;;2.60;;
41925;SDS011;27615;51.826;5.692;2022-08-04T02:32:04;4.82;;;2.38;;
41925;SDS011;27615;51.826;5.692;2022-08-04T02:34:44;4.18;;;1.98;;
41925;SDS011;27615;51.826;5.692;2022-08-04T02:37:16;4.80;;;1.95;;
41925;SDS011;27615;51.826;5.692;2022-08-04T02:39:42;4.20;;;1.40;;
41925;SDS011;27615;51.826;5.692;2022-08-04T02:42:10;5.38;;;2.03;;
41925;SDS011;27615;51.826;5.692;2022-08-04T02:44:38;5.43;;;1.95;;
41925;SDS011;27615;51.826;5.692;2022-08-04T02:47:04;4.40;;;1.85;;
41925;SDS011;27615;51.826;5.692;2022-08-04T02:49:34;4.20;;;1.77;;
41925;SDS011;27615;51.826;5.692;2022-08-04T02:52:01;5.03;;;1.85;;
41925;SDS011;27615;51.826;5.692;2022-08-04T02:54:35;4.50;;;1.75;;
41925;SDS011;27615;51.826;5.692;2022-08-04T02:57:07;6.28;;;2.22;;
41925;SDS011;27615;51.826;5.692;2022-08-04T03:00:17;3.28;;;1.50;;
41925;SDS011;27615;51.826;5.692;2022-08-04T03:05:18;2.22;;;1.23;;
41925;SDS011;27615;51.826;5.692;2022-08-04T03:18:54;3.33;;;1.33;;
41925;SDS011;27615;51.826;5.692;2022-08-04T03:24:19;2.95;;;0.95;;
41925;SDS011;27615;51.826;5.692;2022-08-04T03:27:08;3.22;;;1.40;;
41925;SDS011;27615;51.826;5.692;2022-08-04T03:30:12;2.13;;;0.95;;
41925;SDS011;27615;51.826;5.692;2022-08-04T03:35:51;4.57;;;1.00;;
41925;SDS011;27615;51.826;5.692;2022-08-04T03:47:00;4.22;;;1.50;;
41925;SDS011;27615;51.826;5.692;2022-08-04T03:58:37;3.28;;;1.30;;
41925;SDS011;27615;51.826;5.692;2022-08-04T04:12:04;5.20;;;1.73;;
41925;SDS011;27615;51.826;5.692;2022-08-04T04:14:46;3.10;;;1.60;;
41925;SDS011;27615;51.826;5.692;2022-08-04T04:20:12;4.30;;;1.70;;
41925;SDS011;27615;51.826;5.692;2022-08-04T04:23:00;3.80;;;1.55;;
41925;SDS011;27615;51.826;5.692;2022-08-04T04:39:19;3.80;;;2.08;;
41925;SDS011;27615;51.826;5.692;2022-08-04T04:42:24;3.33;;;2.30;;
41925;SDS011;27615;51.826;5.692;2022-08-04T04:50:45;6.32;;;2.30;;
41925;SDS011;27615;51.826;5.692;2022-08-04T04:56:29;2.70;;;2.03;;
41925;SDS011;27615;51.826;5.692;2022-08-04T04:59:05;3.55;;;2.00;;
41925;SDS011;27615;51.826;5.692;2022-08-04T05:15:45;6.60;;;2.38;;
41925;SDS011;27615;51.826;5.692;2022-08-04T05:18:15;2.75;;;2.30;;
41925;SDS011;27615;51.826;5.692;2022-08-04T05:20:47;3.47;;;2.60;;
41925;SDS011;27615;51.826;5.692;2022-08-04T05:23:17;7.93;;;2.85;;
41925;SDS011;27615;51.826;5.692;2022-08-04T05:25:51;8.27;;;2.47;;
41925;SDS011;27615;51.826;5.692;2022-08-04T05:28:25;4.88;;;2.70;;
41925;SDS011;27615;51.826;5.692;2022-08-04T05:30:58;3.03;;;2.45;;
41925;SDS011;27615;51.826;5.692;2022-08-04T05:33:28;4.10;;;2.60;;
41925;SDS011;27615;51.826;5.692;2022-08-04T05:35:58;5.60;;;3.17;;
41925;SDS011;27615;51.826;5.692;2022-08-04T05:38:28;4.93;;;2.55;;
41925;SDS011;27615;51.826;5.692;2022-08-04T05:40:58;5.20;;;2.78;;
41925;SDS011;27615;51.826;5.692;2022-08-04T05:43:28;4.65;;;2.60;;
41925;SDS011;27615;51.826;5.692;2022-08-04T05:45:55;4.03;;;2.78;;
41925;SDS011;27615;51.826;5.692;2022-08-04T05:48:22;4.70;;;2.85;;
41925;SDS011;27615;51.826;5.692;2022-08-04T05:50:49;3.67;;;2.72;;
41925;SDS011;27615;51.826;5.692;2022-08-04T05:53:16;5.68;;;2.63;;
41925;SDS011;27615;51.826;5.692;2022-08-04T05:55:43;3.95;;;2.50;;
41925;SDS011;27615;51.826;5.692;2022-08-04T05:58:10;2.88;;;2.08;;
41925;SDS011;27615;51.826;5.692;2022-08-04T06:00:37;6.60;;;2.55;;
41925;SDS011;27615;51.826;5.692;2022-08-04T06:03:05;5.85;;;2.75;;
41925;SDS011;27615;51.826;5.692;2022-08-04T06:05:33;3.80;;;2.70;;
41925;SDS011;27615;51.826;5.692;2022-08-04T06:07:59;5.07;;;3.05;;
41925;SDS011;27615;51.826;5.692;2022-08-04T06:10:25;4.15;;;3.10;;
41925;SDS011;27615;51.826;5.692;2022-08-04T06:12:58;5.75;;;3.30;;
41925;SDS011;27615;51.826;5.692;2022-08-04T06:15:30;4.97;;;3.15;;
41925;SDS011;27615;51.826;5.692;2022-08-04T06:18:03;7.72;;;3.92;;
41925;SDS011;27615;51.826;5.692;2022-08-04T06:20:39;4.32;;;3.10;;
41925;SDS011;27615;51.826;5.692;2022-08-04T06:23:10;4.85;;;3.08;;
41925;SDS011;27615;51.826;5.692;2022-08-04T06:25:52;5.88;;;2.65;;
41925;SDS011;27615;51.826;5.692;2022-08-04T06:28:28;5.03;;;2.70;;
41925;SDS011;27615;51.826;5.692;2022-08-04T06:30:55;4.93;;;2.95;;
41925;SDS011;27615;51.826;5.692;2022-08-04T06:33:27;4.32;;;3.05;;
41925;SDS011;27615;51.826;5.692;2022-08-04T06:35:59;4.13;;;2.88;;
41925;SDS011;27615;51.826;5.692;2022-08-04T06:38:26;3.78;;;2.63;;
41925;SDS011;27615;51.826;5.692;2022-08-04T06:40:53;5.15;;;2.97;;
41925;SDS011;27615;51.826;5.692;2022-08-04T06:43:22;5.53;;;3.27;;
41925;SDS011;27615;51.826;5.692;2022-08-04T06:45:48;3.92;;;3.13;;
41925;SDS011;27615;51.826;5.692;2022-08-04T06:48:15;4.00;;;3.08;;
41925;SDS011;27615;51.826;5.692;2022-08-04T06:50:43;4.25;;;2.78;;
41925;SDS011;27615;51.826;5.692;2022-08-04T06:53:11;7.80;;;3.30;;
41925;SDS011;27615;51.826;5.692;2022-08-04T06:55:38;4.50;;;3.40;;
41925;SDS011;27615;51.826;5.692;2022-08-04T06:58:06;5.75;;;3.67;;
41925;SDS011;27615;51.826;5.692;2022-08-04T07:00:34;5.43;;;3.00;;
41925;SDS011;27615;51.826;5.692;2022-08-04T07:03:01;5.30;;;3.58;;
41925;SDS011;27615;51.826;5.692;2022-08-04T07:05:27;6.40;;;3.13;;
41925;SDS011;27615;51.826;5.692;2022-08-04T07:07:54;4.75;;;3.05;;
41925;SDS011;27615;51.826;5.692;2022-08-04T07:10:21;3.78;;;2.33;;
41925;SDS011;27615;51.826;5.692;2022-08-04T07:12:50;5.00;;;2.75;;
41925;SDS011;27615;51.826;5.692;2022-08-04T07:15:16;2.42;;;1.75;;
41925;SDS011;27615;51.826;5.692;2022-08-04T07:17:43;3.25;;;2.45;;
41925;SDS011;27615;51.826;5.692;2022-08-04T07:20:10;3.40;;;1.98;;
41925;SDS011;27615;51.826;5.692;2022-08-04T07:22:36;2.55;;;1.98;;
41925;SDS011;27615;51.826;5.692;2022-08-04T07:25:07;2.90;;;1.85;;
41925;SDS011;27615;51.826;5.692;2022-08-04T07:27:36;4.93;;;2.38;;
41925;SDS011;27615;51.826;5.692;2022-08-04T07:30:08;7.30;;;1.90;;
41925;SDS011;27615;51.826;5.692;2022-08-04T07:32:34;3.75;;;1.55;;
41925;SDS011;27615;51.826;5.692;2022-08-04T07:35:02;3.55;;;1.77;;
41925;SDS011;27615;51.826;5.692;2022-08-04T07:37:35;5.03;;;2.50;;
41925;SDS011;27615;51.826;5.692;2022-08-04T07:40:08;6.53;;;2.83;;
41925;SDS011;27615;51.826;5.692;2022-08-04T07:42:33;5.90;;;4.13;;
41925;SDS011;27615;51.826;5.692;2022-08-04T07:45:06;8.85;;;3.70;;
41925;SDS011;27615;51.826;5.692;2022-08-04T07:48:03;7.97;;;4.97;;
41925;SDS011;27615;51.826;5.692;2022-08-04T07:50:36;6.85;;;5.43;;
41925;SDS011;27615;51.826;5.692;2022-08-04T07:53:11;8.32;;;6.40;;
41925;SDS011;27615;51.826;5.692;2022-08-04T07:55:37;7.85;;;4.72;;
41925;SDS011;27615;51.826;5.692;2022-08-04T07:58:02;7.35;;;4.88;;
41925;SDS011;27615;51.826;5.692;2022-08-04T08:00:28;7.82;;;4.38;;
41925;SDS011;27615;51.826;5.692;2022-08-04T08:02:54;7.03;;;4.13;;
41925;SDS011;27615;51.826;5.692;2022-08-04T08:05:20;6.65;;;4.07;;
41925;SDS011;27615;51.826;5.692;2022-08-04T08:07:47;5.60;;;3.92;;
41925;SDS011;27615;51.826;5.692;2022-08-04T08:10:13;5.68;;;3.50;;
41925;SDS011;27615;51.826;5.692;2022-08-04T08:12:40;6.65;;;3.72;;
41925;SDS011;27615;51.826;5.692;2022-08-04T08:15:07;9.90;;;4.22;;
41925;SDS011;27615;51.826;5.692;2022-08-04T08:17:35;9.50;;;3.85;;
41925;SDS011;27615;51.826;5.692;2022-08-04T08:20:01;4.80;;;3.03;;
41925;SDS011;27615;51.826;5.692;2022-08-04T08:22:27;6.57;;;4.05;;
41925;SDS011;27615;51.826;5.692;2022-08-04T08:24:53;8.07;;;3.60;;
41925;SDS011;27615;51.826;5.692;2022-08-04T08:27:19;5.38;;;3.30;;
41925;SDS011;27615;51.826;5.692;2022-08-04T08:29:44;6.03;;;3.17;;
41925;SDS011;27615;51.826;5.692;2022-08-04T08:32:10;6.70;;;3.35;;
41925;SDS011;27615;51.826;5.692;2022-08-04T08:34:38;6.38;;;3.00;;
41925;SDS011;27615;51.826;5.692;2022-08-04T08:39:38;4.88;;;2.78;;
41925;SDS011;27615;51.826;5.692;2022-08-04T09:10:25;2.45;;;0.93;;
41925;SDS011;27615;51.826;5.692;2022-08-04T09:15:36;2.60;;;0.80;;
41925;SDS011;27615;51.826;5.692;2022-08-04T09:18:28;3.30;;;1.08;;
41925;SDS011;27615;51.826;5.692;2022-08-04T09:24:17;2.00;;;0.60;;
41925;SDS011;27615;51.826;5.692;2022-08-04T09:26:50;3.08;;;1.08;;
41925;SDS011;27615;51.826;5.692;2022-08-04T09:29:32;2.95;;;0.75;;
41925;SDS011;27615;51.826;5.692;2022-08-04T09:40:57;4.40;;;0.88;;
41925;SDS011;27615;51.826;5.692;2022-08-04T09:46:25;2.63;;;0.73;;
41925;SDS011;27615;51.826;5.692;2022-08-04T09:48:55;3.40;;;1.20;;
41925;SDS011;27615;51.826;5.692;2022-08-04T09:56:51;4.68;;;0.93;;
41925;SDS011;27615;51.826;5.692;2022-08-04T09:59:21;6.18;;;0.90;;
41925;SDS011;27615;51.826;5.692;2022-08-04T10:01:53;5.10;;;1.25;;
41925;SDS011;27615;51.826;5.692;2022-08-04T10:04:21;2.55;;;0.70;;
41925;SDS011;27615;51.826;5.692;2022-08-04T10:10:08;3.38;;;0.93;;
41925;SDS011;27615;51.826;5.692;2022-08-04T10:15:50;3.47;;;1.10;;
41925;SDS011;27615;51.826;5.692;2022-08-04T10:18:48;4.07;;;1.05;;
41925;SDS011;27615;51.826;5.692;2022-08-04T10:21:27;3.22;;;1.10;;
41925;SDS011;27615;51.826;5.692;2022-08-04T10:24:47;6.28;;;1.10;;
41925;SDS011;27615;51.826;5.692;2022-08-04T10:26:55;3.88;;;1.05;;
41925;SDS011;27615;51.826;5.692;2022-08-04T10:29:26;4.78;;;1.85;;
41925;SDS011;27615;51.826;5.692;2022-08-04T10:31:59;4.78;;;1.50;;
41925;SDS011;27615;51.826;5.692;2022-08-04T10:35:36;2.53;;;0.80;;
41925;SDS011;27615;51.826;5.692;2022-08-04T10:41:31;3.58;;;1.15;;
41925;SDS011;27615;51.826;5.692;2022-08-04T10:46:30;3.63;;;0.90;;
41925;SDS011;27615;51.826;5.692;2022-08-04T10:49:03;2.85;;;1.63;;
41925;SDS011;27615;51.826;5.692;2022-08-04T10:54:20;3.72;;;1.33;;
41925;SDS011;27615;51.826;5.692;2022-08-04T10:56:56;3.72;;;1.75;;
41925;SDS011;27615;51.826;5.692;2022-08-04T10:59:28;4.00;;;1.95;;
41925;SDS011;27615;51.826;5.692;2022-08-04T11:02:00;3.72;;;1.60;;
41925;SDS011;27615;51.826;5.692;2022-08-04T11:04:44;4.00;;;1.40;;
41925;SDS011;27615;51.826;5.692;2022-08-04T11:07:12;4.35;;;1.35;;
41925;SDS011;27615;51.826;5.692;2022-08-04T11:09:40;3.03;;;1.40;;
41925;SDS011;27615;51.826;5.692;2022-08-04T11:12:20;2.72;;;1.20;;
41925;SDS011;27615;51.826;5.692;2022-08-04T11:14:51;4.05;;;1.60;;
41925;SDS011;27615;51.826;5.692;2022-08-04T11:17:25;3.50;;;1.55;;
41925;SDS011;27615;51.826;5.692;2022-08-04T11:22:35;3.25;;;1.40;;
41925;SDS011;27615;51.826;5.692;2022-08-04T11:25:18;4.63;;;1.48;;
41925;SDS011;27615;51.826;5.692;2022-08-04T11:30:52;3.88;;;1.50;;
41925;SDS011;27615;51.826;5.692;2022-08-04T11:41:47;3.08;;;1.42;;
41925;SDS011;27615;51.826;5.692;2022-08-04T11:44:22;2.63;;;1.65;;
41925;SDS011;27615;51.826;5.692;2022-08-04T11:46:50;4.60;;;1.38;;
41925;SDS011;27615;51.826;5.692;2022-08-04T11:49:32;3.40;;;1.08;;
41925;SDS011;27615;51.826;5.692;2022-08-04T11:52:01;4.80;;;1.23;;
41925;SDS011;27615;51.826;5.692;2022-08-04T11:54:29;4.20;;;1.45;;
41925;SDS011;27615;51.826;5.692;2022-08-04T11:56:57;4.28;;;1.60;;
41925;SDS011;27615;51.826;5.692;2022-08-04T11:59:22;3.45;;;1.55;;
41925;SDS011;27615;51.826;5.692;2022-08-04T12:04:57;3.78;;;1.48;;
41925;SDS011;27615;51.826;5.692;2022-08-04T12:15:39;4.47;;;1.75;;
41925;SDS011;27615;51.826;5.692;2022-08-04T12:18:37;3.15;;;1.58;;
41925;SDS011;27615;51.826;5.692;2022-08-04T12:21:06;2.75;;;1.45;;
41925;SDS011;27615;51.826;5.692;2022-08-04T12:23:39;2.67;;;1.80;;
41925;SDS011;27615;51.826;5.692;2022-08-04T12:26:06;5.03;;;1.98;;
41925;SDS011;27615;51.826;5.692;2022-08-04T12:28:35;3.20;;;1.95;;
41925;SDS011;27615;51.826;5.692;2022-08-04T12:31:11;3.40;;;1.90;;
41925;SDS011;27615;51.826;5.692;2022-08-04T12:33:48;3.83;;;1.85;;
41925;SDS011;27615;51.826;5.692;2022-08-04T12:36:26;4.72;;;1.60;;
41925;SDS011;27615;51.826;5.692;2022-08-04T12:39:15;4.57;;;1.98;;
41925;SDS011;27615;51.826;5.692;2022-08-04T12:41:45;3.28;;;1.75;;
41925;SDS011;27615;51.826;5.692;2022-08-04T12:44:19;3.00;;;1.63;;
41925;SDS011;27615;51.826;5.692;2022-08-04T12:46:46;2.72;;;1.73;;
41925;SDS011;27615;51.826;5.692;2022-08-04T12:49:13;3.63;;;1.30;;
41925;SDS011;27615;51.826;5.692;2022-08-04T12:51:41;2.83;;;1.25;;
41925;SDS011;27615;51.826;5.692;2022-08-04T12:54:09;4.30;;;0.90;;
41925;SDS011;27615;51.826;5.692;2022-08-04T12:56:35;3.13;;;1.15;;
41925;SDS011;27615;51.826;5.692;2022-08-04T12:59:04;1.92;;;0.95;;
41925;SDS011;27615;51.826;5.692;2022-08-04T13:01:31;1.48;;;0.90;;
41925;SDS011;27615;51.826;5.692;2022-08-04T13:03:59;1.77;;;1.00;;
41925;SDS011;27615;51.826;5.692;2022-08-04T13:06:40;1.65;;;0.77;;
41925;SDS011;27615;51.826;5.692;2022-08-04T13:09:08;1.77;;;0.70;;
41925;SDS011;27615;51.826;5.692;2022-08-04T13:11:40;2.42;;;1.20;;
41925;SDS011;27615;51.826;5.692;2022-08-04T13:14:07;3.00;;;0.80;;
41925;SDS011;27615;51.826;5.692;2022-08-04T13:16:35;3.90;;;1.33;;
41925;SDS011;27615;51.826;5.692;2022-08-04T13:19:01;4.05;;;1.10;;
41925;SDS011;27615;51.826;5.692;2022-08-04T13:21:32;4.82;;;1.45;;
41925;SDS011;27615;51.826;5.692;2022-08-04T13:24:02;3.40;;;1.30;;
41925;SDS011;27615;51.826;5.692;2022-08-04T13:26:32;3.75;;;1.20;;
41925;SDS011;27615;51.826;5.692;2022-08-04T13:29:00;3.63;;;1.33;;
41925;SDS011;27615;51.826;5.692;2022-08-04T13:31:29;2.80;;;1.42;;
41925;SDS011;27615;51.826;5.692;2022-08-04T13:34:04;2.60;;;1.00;;
41925;SDS011;27615;51.826;5.692;2022-08-04T13:36:31;2.05;;;0.93;;
41925;SDS011;27615;51.826;5.692;2022-08-04T13:39:01;2.22;;;1.10;;
41925;SDS011;27615;51.826;5.692;2022-08-04T13:41:31;3.15;;;1.70;;
41925;SDS011;27615;51.826;5.692;2022-08-04T13:43:59;3.70;;;1.00;;
41925;SDS011;27615;51.826;5.692;2022-08-04T13:46:32;5.60;;;1.17;;
41925;SDS011;27615;51.826;5.692;2022-08-04T13:49:11;1.63;;;0.70;;
41925;SDS011;27615;51.826;5.692;2022-08-04T13:51:46;3.47;;;0.80;;
41925;SDS011;27615;51.826;5.692;2022-08-04T13:54:41;2.28;;;0.80;;
41925;SDS011;27615;51.826;5.692;2022-08-04T13:57:11;2.17;;;0.60;;
41925;SDS011;27615;51.826;5.692;2022-08-04T13:59:51;2.08;;;0.70;;
41925;SDS011;27615;51.826;5.692;2022-08-04T14:02:25;1.77;;;0.77;;
41925;SDS011;27615;51.826;5.692;2022-08-04T14:05:04;5.13;;;1.20;;
41925;SDS011;27615;51.826;5.692;2022-08-04T14:08:27;2.75;;;0.80;;
41925;SDS011;27615;51.826;5.692;2022-08-04T14:10:31;3.15;;;0.75;;
41925;SDS011;27615;51.826;5.692;2022-08-04T14:12:57;4.07;;;0.80;;
41925;SDS011;27615;51.826;5.692;2022-08-04T14:15:30;1.80;;;0.60;;
41925;SDS011;27615;51.826;5.692;2022-08-04T14:18:15;2.05;;;0.75;;
41925;SDS011;27615;51.826;5.692;2022-08-04T14:23:39;2.85;;;0.80;;
41925;SDS011;27615;51.826;5.692;2022-08-04T14:26:18;2.47;;;0.93;;
41925;SDS011;27615;51.826;5.692;2022-08-04T14:29:07;2.60;;;0.85;;
41925;SDS011;27615;51.826;5.692;2022-08-04T14:31:40;1.98;;;0.82;;
41925;SDS011;27615;51.826;5.692;2022-08-04T14:34:06;1.73;;;0.90;;
41925;SDS011;27615;51.826;5.692;2022-08-04T14:36:39;3.08;;;0.90;;
41925;SDS011;27615;51.826;5.692;2022-08-04T14:39:06;1.60;;;0.70;;
41925;SDS011;27615;51.826;5.692;2022-08-04T14:41:48;1.98;;;0.80;;
41925;SDS011;27615;51.826;5.692;2022-08-04T14:44:14;2.13;;;0.88;;
41925;SDS011;27615;51.826;5.692;2022-08-04T14:46:51;2.40;;;0.60;;
41925;SDS011;27615;51.826;5.692;2022-08-04T14:49:20;2.20;;;1.20;;
41925;SDS011;27615;51.826;5.692;2022-08-04T14:52:05;1.05;;;0.70;;
41925;SDS011;27615;51.826;5.692;2022-08-04T14:54:31;1.08;;;0.60;;
41925;SDS011;27615;51.826;5.692;2022-08-04T15:00:28;2.33;;;0.65;;
41925;SDS011;27615;51.826;5.692;2022-08-04T15:03:01;0.70;;;0.50;;
41925;SDS011;27615;51.826;5.692;2022-08-04T15:05:35;2.08;;;0.70;;
41925;SDS011;27615;51.826;5.692;2022-08-04T15:08:02;1.00;;;0.50;;
41925;SDS011;27615;51.826;5.692;2022-08-04T15:10:32;1.73;;;0.75;;
41925;SDS011;27615;51.826;5.692;2022-08-04T15:13:00;1.92;;;0.70;;
41925;SDS011;27615;51.826;5.692;2022-08-04T15:15:40;1.90;;;0.90;;
41925;SDS011;27615;51.826;5.692;2022-08-04T15:18:07;1.25;;;0.95;;
41925;SDS011;27615;51.826;5.692;2022-08-04T15:20:37;1.42;;;0.60;;
41925;SDS011;27615;51.826;5.692;2022-08-04T15:23:04;1.05;;;0.70;;
41925;SDS011;27615;51.826;5.692;2022-08-04T15:25:35;3.17;;;0.93;;
41925;SDS011;27615;51.826;5.692;2022-08-04T15:28:03;1.45;;;0.57;;
41925;SDS011;27615;51.826;5.692;2022-08-04T15:30:31;2.50;;;0.87;;
41925;SDS011;27615;51.826;5.692;2022-08-04T15:32:59;3.25;;;0.77;;
41925;SDS011;27615;51.826;5.692;2022-08-04T15:35:42;0.98;;;0.70;;
41925;SDS011;27615;51.826;5.692;2022-08-04T15:38:37;2.05;;;0.80;;
41925;SDS011;27615;51.826;5.692;2022-08-04T15:41:09;1.55;;;0.60;;
41925;SDS011;27615;51.826;5.692;2022-08-04T15:43:49;1.75;;;0.80;;
41925;SDS011;27615;51.826;5.692;2022-08-04T15:49:19;0.98;;;0.60;;
41925;SDS011;27615;51.826;5.692;2022-08-04T15:51:46;2.53;;;0.85;;
41925;SDS011;27615;51.826;5.692;2022-08-04T15:54:27;2.45;;;0.70;;
41925;SDS011;27615;51.826;5.692;2022-08-04T15:56:53;1.00;;;0.50;;
41925;SDS011;27615;51.826;5.692;2022-08-04T16:12:57;1.65;;;0.73;;
41925;SDS011;27615;51.826;5.692;2022-08-04T16:15:45;3.08;;;0.70;;
41925;SDS011;27615;51.826;5.692;2022-08-04T16:21:01;2.73;;;0.73;;
41925;SDS011;27615;51.826;5.692;2022-08-04T16:32:09;1.75;;;0.60;;
41925;SDS011;27615;51.826;5.692;2022-08-04T16:35:04;2.90;;;0.60;;
41925;SDS011;27615;51.826;5.692;2022-08-04T16:45:11;2.05;;;0.60;;
41925;SDS011;27615;51.826;5.692;2022-08-04T16:50:19;1.23;;;0.60;;
41925;SDS011;27615;51.826;5.692;2022-08-04T16:52:47;1.48;;;0.50;;
41925;SDS011;27615;51.826;5.692;2022-08-04T16:55:21;2.58;;;0.70;;
41925;SDS011;27615;51.826;5.692;2022-08-04T17:01:32;2.20;;;0.70;;
41925;SDS011;27615;51.826;5.692;2022-08-04T17:03:57;1.42;;;0.55;;
41925;SDS011;27615;51.826;5.692;2022-08-04T17:06:32;3.13;;;0.70;;
41925;SDS011;27615;51.826;5.692;2022-08-04T17:09:02;1.35;;;0.60;;
41925;SDS011;27615;51.826;5.692;2022-08-04T17:11:40;1.95;;;0.70;;
41925;SDS011;27615;51.826;5.692;2022-08-04T17:14:07;2.63;;;0.82;;
41925;SDS011;27615;51.826;5.692;2022-08-04T17:16:38;2.47;;;0.70;;
41925;SDS011;27615;51.826;5.692;2022-08-04T17:19:05;1.95;;;0.70;;
41925;SDS011;27615;51.826;5.692;2022-08-04T17:21:33;4.05;;;0.80;;
41925;SDS011;27615;51.826;5.692;2022-08-04T17:24:01;1.48;;;0.75;;
41925;SDS011;27615;51.826;5.692;2022-08-04T17:26:29;3.00;;;0.80;;
41925;SDS011;27615;51.826;5.692;2022-08-04T17:28:56;1.58;;;0.70;;
41925;SDS011;27615;51.826;5.692;2022-08-04T17:31:26;3.08;;;0.80;;
41925;SDS011;27615;51.826;5.692;2022-08-04T17:33:54;1.42;;;0.65;;
41925;SDS011;27615;51.826;5.692;2022-08-04T17:36:25;2.97;;;0.73;;
41925;SDS011;27615;51.826;5.692;2022-08-04T17:38:53;2.92;;;0.60;;
41925;SDS011;27615;51.826;5.692;2022-08-04T17:41:21;2.20;;;1.13;;
41925;SDS011;27615;51.826;5.692;2022-08-04T17:44:09;2.22;;;0.70;;
41925;SDS011;27615;51.826;5.692;2022-08-04T17:46:37;3.00;;;0.90;;
41925;SDS011;27615;51.826;5.692;2022-08-04T17:54:34;2.17;;;0.80;;
41925;SDS011;27615;51.826;5.692;2022-08-04T17:57:15;1.70;;;0.60;;
41925;SDS011;27615;51.826;5.692;2022-08-04T17:59:43;3.75;;;0.73;;
41925;SDS011;27615;51.826;5.692;2022-08-04T18:02:22;3.22;;;0.65;;
41925;SDS011;27615;51.826;5.692;2022-08-04T18:04:53;1.85;;;0.60;;
41925;SDS011;27615;51.826;5.692;2022-08-04T18:09:54;2.92;;;0.80;;
41925;SDS011;27615;51.826;5.692;2022-08-04T18:12:25;2.72;;;0.80;;
41925;SDS011;27615;51.826;5.692;2022-08-04T18:15:03;2.72;;;0.95;;
41925;SDS011;27615;51.826;5.692;2022-08-04T18:20:18;1.95;;;0.68;;
41925;SDS011;27615;51.826;5.692;2022-08-04T18:22:45;4.07;;;0.88;;
41925;SDS011;27615;51.826;5.692;2022-08-04T18:25:12;2.83;;;0.90;;
41925;SDS011;27615;51.826;5.692;2022-08-04T18:27:48;2.45;;;0.90;;
41925;SDS011;27615;51.826;5.692;2022-08-04T18:30:15;1.98;;;0.70;;
41925;SDS011;27615;51.826;5.692;2022-08-04T18:32:41;1.50;;;0.77;;
41925;SDS011;27615;51.826;5.692;2022-08-04T18:35:07;1.98;;;0.60;;
41925;SDS011;27615;51.826;5.692;2022-08-04T18:37:36;1.92;;;0.63;;
41925;SDS011;27615;51.826;5.692;2022-08-04T18:40:03;2.75;;;0.70;;
41925;SDS011;27615;51.826;5.692;2022-08-04T18:42:29;3.53;;;0.63;;
41925;SDS011;27615;51.826;5.692;2022-08-04T18:44:55;1.92;;;0.70;;
41925;SDS011;27615;51.826;5.692;2022-08-04T18:47:21;1.30;;;0.60;;
41925;SDS011;27615;51.826;5.692;2022-08-04T18:49:48;4.18;;;0.90;;
41925;SDS011;27615;51.826;5.692;2022-08-04T18:52:17;2.20;;;0.73;;
41925;SDS011;27615;51.826;5.692;2022-08-04T18:54:43;2.60;;;0.75;;
41925;SDS011;27615;51.826;5.692;2022-08-04T18:57:09;2.13;;;0.80;;
41925;SDS011;27615;51.826;5.692;2022-08-04T18:59:35;2.13;;;0.65;;
41925;SDS011;27615;51.826;5.692;2022-08-04T19:02:00;1.83;;;0.50;;
41925;SDS011;27615;51.826;5.692;2022-08-04T19:04:26;0.93;;;0.40;;
41925;SDS011;27615;51.826;5.692;2022-08-04T19:06:51;2.00;;;0.80;;
41925;SDS011;27615;51.826;5.692;2022-08-04T19:09:17;2.10;;;0.60;;
41925;SDS011;27615;51.826;5.692;2022-08-04T19:14:42;1.48;;;0.68;;
41925;SDS011;27615;51.826;5.692;2022-08-04T19:17:07;1.48;;;0.50;;
41925;SDS011;27615;51.826;5.692;2022-08-04T19:19:33;1.52;;;0.50;;
41925;SDS011;27615;51.826;5.692;2022-08-04T19:21:58;1.75;;;0.65;;
41925;SDS011;27615;51.826;5.692;2022-08-04T19:24:24;1.77;;;0.75;;
41925;SDS011;27615;51.826;5.692;2022-08-04T19:26:49;2.08;;;0.70;;
41925;SDS011;27615;51.826;5.692;2022-08-04T19:29:15;1.75;;;0.50;;
41925;SDS011;27615;51.826;5.692;2022-08-04T19:31:44;2.47;;;0.70;;
41925;SDS011;27615;51.826;5.692;2022-08-04T19:34:09;1.63;;;0.50;;
41925;SDS011;27615;51.826;5.692;2022-08-04T19:36:35;3.95;;;0.60;;
41925;SDS011;27615;51.826;5.692;2022-08-04T19:39:02;1.45;;;0.50;;
41925;SDS011;27615;51.826;5.692;2022-08-04T19:41:31;0.85;;;0.47;;
41925;SDS011;27615;51.826;5.692;2022-08-04T19:44:00;3.92;;;0.70;;
41925;SDS011;27615;51.826;5.692;2022-08-04T19:46:29;1.95;;;0.50;;
41925;SDS011;27615;51.826;5.692;2022-08-04T19:48:55;1.27;;;0.43;;
41925;SDS011;27615;51.826;5.692;2022-08-04T19:51:20;2.25;;;0.60;;
41925;SDS011;27615;51.826;5.692;2022-08-04T19:53:46;1.08;;;0.50;;
41925;SDS011;27615;51.826;5.692;2022-08-04T19:56:12;2.55;;;0.47;;
41925;SDS011;27615;51.826;5.692;2022-08-04T19:58:37;3.22;;;0.50;;
41925;SDS011;27615;51.826;5.692;2022-08-04T20:01:05;1.58;;;0.82;;